sensor_id;sensor_type;location;lat;lon;timestamp;pressure;altitude;pressure_sealevel;temperature;humidity
79577;BME280;69045;48.136;11.386;2023-07-29T00:00:12;95066.06;;;18.77;84.80
79577;BME280;69045;48.136;11.386;2023-07-29T00:02:40;95071.13;;;18.69;85.27
79577;BME280;69045;48.136;11.386;2023-07-29T00:05:10;95068.13;;;18.86;84.40
79577;BME280;69045;48.136;11.386;2023-07-29T00:07:38;95066.56;;;19.24;82.81
79577;BME280;69045;48.136;11.386;2023-07-29T00:10:07;95068.25;;;19.44;81.07
79577;BME280;69045;48.136;11.386;2023-07-29T00:12:36;95069.94;;;19.69;79.52
79577;BME280;69045;48.136;11.386;2023-07-29T00:15:05;95063.94;;;19.87;78.36
79577;BME280;69045;48.136;11.386;2023-07-29T00:17:33;95067.22;;;20.03;77.33
79577;BME280;69045;48.136;11.386;2023-07-29T00:20:01;95057.78;;;20.15;76.55
79577;BME280;69045;48.136;11.386;2023-07-29T00:22:34;95063.00;;;20.26;76.00
79577;BME280;69045;48.136;11.386;2023-07-29T00:25:03;95054.38;;;20.34;75.33
79577;BME280;69045;48.136;11.386;2023-07-29T00:27:31;95049.50;;;20.41;75.47
79577;BME280;69045;48.136;11.386;2023-07-29T00:29:59;95057.69;;;20.50;74.86
79577;BME280;69045;48.136;11.386;2023-07-29T00:32:29;95048.06;;;20.54;74.51
79577;BME280;69045;48.136;11.386;2023-07-29T00:34:57;95052.75;;;20.62;74.39
79577;BME280;69045;48.136;11.386;2023-07-29T00:37:29;95053.47;;;20.67;74.11
79577;BME280;69045;48.136;11.386;2023-07-29T00:39:58;95047.25;;;20.72;73.98
79577;BME280;69045;48.136;11.386;2023-07-29T00:42:26;95050.94;;;20.76;73.56
79577;BME280;69045;48.136;11.386;2023-07-29T00:44:55;95046.41;;;20.77;73.56
79577;BME280;69045;48.136;11.386;2023-07-29T00:47:25;95054.09;;;20.78;73.32
79577;BME280;69045;48.136;11.386;2023-07-29T00:49:53;95046.91;;;20.79;73.45
79577;BME280;69045;48.136;11.386;2023-07-29T00:52:21;95044.78;;;20.81;72.79
79577;BME280;69045;48.136;11.386;2023-07-29T00:54:49;95050.09;;;20.81;73.21
79577;BME280;69045;48.136;11.386;2023-07-29T00:57:21;95051.97;;;20.80;72.77
79577;BME280;69045;48.136;11.386;2023-07-29T00:59:50;95045.03;;;20.79;72.62
79577;BME280;69045;48.136;11.386;2023-07-29T01:02:26;95048.53;;;20.80;72.82
79577;BME280;69045;48.136;11.386;2023-07-29T01:04:58;95044.53;;;20.77;72.65
79577;BME280;69045;48.136;11.386;2023-07-29T01:07:33;95045.13;;;20.74;72.47
79577;BME280;69045;48.136;11.386;2023-07-29T01:10:09;95041.75;;;20.68;72.66
79577;BME280;69045;48.136;11.386;2023-07-29T01:12:49;95041.25;;;20.66;72.53
79577;BME280;69045;48.136;11.386;2023-07-29T01:15:22;95036.47;;;20.63;72.53
79577;BME280;69045;48.136;11.386;2023-07-29T01:17:56;95035.47;;;20.59;73.03
79577;BME280;69045;48.136;11.386;2023-07-29T01:20:29;95041.66;;;20.55;72.80
79577;BME280;69045;48.136;11.386;2023-07-29T01:23:00;95036.09;;;20.51;72.66
79577;BME280;69045;48.136;11.386;2023-07-29T01:25:29;95037.97;;;20.51;73.37
79577;BME280;69045;48.136;11.386;2023-07-29T01:27:58;95030.84;;;20.46;73.19
79577;BME280;69045;48.136;11.386;2023-07-29T01:30:36;95027.97;;;20.37;73.43
79577;BME280;69045;48.136;11.386;2023-07-29T01:33:14;95024.38;;;20.28;73.21
79577;BME280;69045;48.136;11.386;2023-07-29T01:35:48;95019.97;;;20.18;73.55
79577;BME280;69045;48.136;11.386;2023-07-29T01:38:18;95012.50;;;20.21;73.65
79577;BME280;69045;48.136;11.386;2023-07-29T01:40:50;95017.28;;;20.18;74.29
79577;BME280;69045;48.136;11.386;2023-07-29T01:43:21;95019.47;;;20.16;73.98
79577;BME280;69045;48.136;11.386;2023-07-29T01:45:52;95024.22;;;20.20;74.31
79577;BME280;69045;48.136;11.386;2023-07-29T01:48:22;95021.78;;;20.23;73.75
79577;BME280;69045;48.136;11.386;2023-07-29T01:50:50;95018.56;;;20.26;73.35
79577;BME280;69045;48.136;11.386;2023-07-29T01:53:18;95029.41;;;20.30;73.28
79577;BME280;69045;48.136;11.386;2023-07-29T01:55:46;95016.59;;;20.32;73.35
79577;BME280;69045;48.136;11.386;2023-07-29T01:58:16;95019.00;;;20.33;73.30
79577;BME280;69045;48.136;11.386;2023-07-29T02:00:46;95020.59;;;20.34;73.06
79577;BME280;69045;48.136;11.386;2023-07-29T02:03:15;95022.97;;;20.36;72.97
79577;BME280;69045;48.136;11.386;2023-07-29T02:05:43;95017.34;;;20.37;72.86
79577;BME280;69045;48.136;11.386;2023-07-29T02:08:11;95013.59;;;20.38;72.63
79577;BME280;69045;48.136;11.386;2023-07-29T02:10:40;95011.75;;;20.39;72.72
79577;BME280;69045;48.136;11.386;2023-07-29T02:13:12;95018.72;;;20.35;72.36
79577;BME280;69045;48.136;11.386;2023-07-29T02:15:41;95012.59;;;20.34;72.55
79577;BME280;69045;48.136;11.386;2023-07-29T02:18:09;95010.25;;;20.33;72.49
79577;BME280;69045;48.136;11.386;2023-07-29T02:20:37;95008.13;;;20.30;72.32
79577;BME280;69045;48.136;11.386;2023-07-29T02:23:05;95016.41;;;20.28;72.39
79577;BME280;69045;48.136;11.386;2023-07-29T02:25:35;95014.53;;;20.29;72.57
79577;BME280;69045;48.136;11.386;2023-07-29T02:28:03;95020.94;;;20.28;72.17
79577;BME280;69045;48.136;11.386;2023-07-29T02:30:31;95018.81;;;20.25;72.14
79577;BME280;69045;48.136;11.386;2023-07-29T02:33:01;95023.44;;;20.19;72.32
79577;BME280;69045;48.136;11.386;2023-07-29T02:35:29;95020.25;;;20.17;72.39
79577;BME280;69045;48.136;11.386;2023-07-29T02:37:57;95019.47;;;20.16;72.59
79577;BME280;69045;48.136;11.386;2023-07-29T02:40:25;95015.22;;;20.15;72.84
79577;BME280;69045;48.136;11.386;2023-07-29T02:42:53;95011.78;;;20.15;72.69
79577;BME280;69045;48.136;11.386;2023-07-29T02:45:21;95015.50;;;20.14;72.89
79577;BME280;69045;48.136;11.386;2023-07-29T02:47:49;95020.34;;;20.12;72.60
79577;BME280;69045;48.136;11.386;2023-07-29T02:50:19;95022.16;;;20.11;72.73
79577;BME280;69045;48.136;11.386;2023-07-29T02:52:47;95015.56;;;20.09;73.19
79577;BME280;69045;48.136;11.386;2023-07-29T02:55:17;95017.94;;;20.10;73.45
79577;BME280;69045;48.136;11.386;2023-07-29T02:57:45;95015.28;;;20.10;73.26
79577;BME280;69045;48.136;11.386;2023-07-29T03:00:13;95013.69;;;20.09;73.23
79577;BME280;69045;48.136;11.386;2023-07-29T03:02:42;95007.38;;;20.05;73.66
79577;BME280;69045;48.136;11.386;2023-07-29T03:05:10;95006.84;;;20.03;73.71
79577;BME280;69045;48.136;11.386;2023-07-29T03:07:39;95009.78;;;20.02;73.70
79577;BME280;69045;48.136;11.386;2023-07-29T03:10:08;95013.81;;;19.99;73.84
79577;BME280;69045;48.136;11.386;2023-07-29T03:12:37;95012.50;;;19.97;73.89
79577;BME280;69045;48.136;11.386;2023-07-29T03:15:06;95020.78;;;19.95;73.92
79577;BME280;69045;48.136;11.386;2023-07-29T03:17:35;95009.34;;;19.95;74.48
79577;BME280;69045;48.136;11.386;2023-07-29T03:20:03;94997.56;;;20.01;74.56
79577;BME280;69045;48.136;11.386;2023-07-29T03:22:31;94986.22;;;19.71;76.13
79577;BME280;69045;48.136;11.386;2023-07-29T03:25:01;94985.28;;;18.89;81.17
79577;BME280;69045;48.136;11.386;2023-07-29T03:27:30;94984.56;;;19.17;80.39
79577;BME280;69045;48.136;11.386;2023-07-29T03:29:58;94985.69;;;19.40;78.92
79577;BME280;69045;48.136;11.386;2023-07-29T03:32:26;94992.69;;;19.55;78.26
79577;BME280;69045;48.136;11.386;2023-07-29T03:34:54;94991.56;;;19.66;77.68
79577;BME280;69045;48.136;11.386;2023-07-29T03:37:23;94999.50;;;19.71;77.33
79577;BME280;69045;48.136;11.386;2023-07-29T03:39:51;95006.56;;;19.81;77.40
79577;BME280;69045;48.136;11.386;2023-07-29T03:42:20;95011.75;;;19.91;76.79
79577;BME280;69045;48.136;11.386;2023-07-29T03:44:48;95001.56;;;19.98;76.46
79577;BME280;69045;48.136;11.386;2023-07-29T03:47:16;95006.28;;;20.06;76.88
79577;BME280;69045;48.136;11.386;2023-07-29T03:49:44;95006.78;;;20.08;76.38
79577;BME280;69045;48.136;11.386;2023-07-29T03:52:14;94994.56;;;20.07;76.43
79577;BME280;69045;48.136;11.386;2023-07-29T03:54:42;94998.22;;;20.11;76.29
79577;BME280;69045;48.136;11.386;2023-07-29T03:57:10;95000.53;;;19.99;77.20
79577;BME280;69045;48.136;11.386;2023-07-29T03:59:39;94992.53;;;19.75;78.35
79577;BME280;69045;48.136;11.386;2023-07-29T04:02:07;94978.06;;;19.28;79.99
79577;BME280;69045;48.136;11.386;2023-07-29T04:04:36;94982.75;;;19.07;81.35
79577;BME280;69045;48.136;11.386;2023-07-29T04:07:05;94980.22;;;19.26;81.14
79577;BME280;69045;48.136;11.386;2023-07-29T04:09:33;94975.09;;;19.06;82.05
79577;BME280;69045;48.136;11.386;2023-07-29T04:12:02;94983.47;;;18.84;82.97
79577;BME280;69045;48.136;11.386;2023-07-29T04:14:31;94973.03;;;18.48;84.46
79577;BME280;69045;48.136;11.386;2023-07-29T04:17:00;94970.13;;;18.50;85.00
79577;BME280;69045;48.136;11.386;2023-07-29T04:19:28;94966.25;;;18.32;86.45
79577;BME280;69045;48.136;11.386;2023-07-29T04:21:56;94965.66;;;17.91;88.46
79577;BME280;69045;48.136;11.386;2023-07-29T04:24:25;94966.88;;;18.14;88.26
79577;BME280;69045;48.136;11.386;2023-07-29T04:26:53;94968.59;;;18.44;86.55
79577;BME280;69045;48.136;11.386;2023-07-29T04:29:20;94960.72;;;18.73;84.97
79577;BME280;69045;48.136;11.386;2023-07-29T04:31:49;94960.22;;;19.05;83.16
79577;BME280;69045;48.136;11.386;2023-07-29T04:34:19;94965.84;;;18.98;83.14
79577;BME280;69045;48.136;11.386;2023-07-29T04:36:48;94966.84;;;19.07;82.41
79577;BME280;69045;48.136;11.386;2023-07-29T04:39:16;94969.66;;;19.16;81.39
79577;BME280;69045;48.136;11.386;2023-07-29T04:41:44;94972.09;;;19.42;80.77
79577;BME280;69045;48.136;11.386;2023-07-29T04:44:14;94972.19;;;19.66;79.68
79577;BME280;69045;48.136;11.386;2023-07-29T04:46:42;94964.38;;;19.45;79.95
79577;BME280;69045;48.136;11.386;2023-07-29T04:49:10;94972.34;;;19.45;81.06
79577;BME280;69045;48.136;11.386;2023-07-29T04:51:39;94977.75;;;19.64;80.23
79577;BME280;69045;48.136;11.386;2023-07-29T04:54:10;94972.34;;;19.74;79.75
79577;BME280;69045;48.136;11.386;2023-07-29T04:56:38;94975.50;;;20.00;78.65
79577;BME280;69045;48.136;11.386;2023-07-29T04:59:07;94965.19;;;20.17;77.61
79577;BME280;69045;48.136;11.386;2023-07-29T05:01:35;94969.75;;;20.36;76.94
79577;BME280;69045;48.136;11.386;2023-07-29T05:04:03;94962.38;;;20.52;76.35
79577;BME280;69045;48.136;11.386;2023-07-29T05:06:32;94960.50;;;20.52;76.78
79577;BME280;69045;48.136;11.386;2023-07-29T05:09:14;94959.22;;;20.50;77.23
79577;BME280;69045;48.136;11.386;2023-07-29T05:11:43;94951.72;;;20.52;77.88
79577;BME280;69045;48.136;11.386;2023-07-29T05:14:12;94943.53;;;20.48;78.12
79577;BME280;69045;48.136;11.386;2023-07-29T05:16:41;94936.59;;;20.85;76.86
79577;BME280;69045;48.136;11.386;2023-07-29T05:19:10;94937.44;;;20.99;75.44
79577;BME280;69045;48.136;11.386;2023-07-29T05:21:39;94944.06;;;21.02;75.76
79577;BME280;69045;48.136;11.386;2023-07-29T05:24:07;94935.44;;;20.72;76.63
79577;BME280;69045;48.136;11.386;2023-07-29T05:26:37;94947.78;;;20.68;76.76
79577;BME280;69045;48.136;11.386;2023-07-29T05:29:05;94953.28;;;20.71;77.59
79577;BME280;69045;48.136;11.386;2023-07-29T05:31:33;94967.38;;;20.91;76.41
79577;BME280;69045;48.136;11.386;2023-07-29T05:34:01;94961.19;;;20.95;76.10
79577;BME280;69045;48.136;11.386;2023-07-29T05:36:30;94963.84;;;21.14;76.65
79577;BME280;69045;48.136;11.386;2023-07-29T05:38:58;94962.03;;;21.10;76.33
79577;BME280;69045;48.136;11.386;2023-07-29T05:41:26;94960.69;;;21.26;75.86
79577;BME280;69045;48.136;11.386;2023-07-29T05:43:57;94976.66;;;21.45;75.26
79577;BME280;69045;48.136;11.386;2023-07-29T05:46:25;94974.81;;;21.59;74.88
79577;BME280;69045;48.136;11.386;2023-07-29T05:48:53;94994.47;;;21.63;74.47
79577;BME280;69045;48.136;11.386;2023-07-29T05:51:21;95015.72;;;21.68;74.14
79577;BME280;69045;48.136;11.386;2023-07-29T05:53:49;95008.13;;;21.75;73.55
79577;BME280;69045;48.136;11.386;2023-07-29T05:56:18;94971.28;;;21.77;72.47
79577;BME280;69045;48.136;11.386;2023-07-29T05:58:46;94965.81;;;21.41;74.37
79577;BME280;69045;48.136;11.386;2023-07-29T06:01:15;94944.56;;;20.85;76.96
79577;BME280;69045;48.136;11.386;2023-07-29T06:03:43;94942.44;;;20.49;79.95
79577;BME280;69045;48.136;11.386;2023-07-29T06:06:12;94951.09;;;20.60;79.67
79577;BME280;69045;48.136;11.386;2023-07-29T06:08:40;94956.09;;;20.42;80.21
79577;BME280;69045;48.136;11.386;2023-07-29T06:11:09;94965.88;;;20.66;80.10
79577;BME280;69045;48.136;11.386;2023-07-29T06:13:37;94968.28;;;20.86;79.55
79577;BME280;69045;48.136;11.386;2023-07-29T06:16:05;94968.97;;;20.92;78.46
79577;BME280;69045;48.136;11.386;2023-07-29T06:18:35;94971.97;;;21.04;77.86
79577;BME280;69045;48.136;11.386;2023-07-29T06:21:03;94976.94;;;21.11;77.85
79577;BME280;69045;48.136;11.386;2023-07-29T06:23:34;94968.78;;;21.21;77.59
79577;BME280;69045;48.136;11.386;2023-07-29T06:26:02;94975.84;;;21.31;77.27
79577;BME280;69045;48.136;11.386;2023-07-29T06:28:30;94993.66;;;21.49;76.30
79577;BME280;69045;48.136;11.386;2023-07-29T06:30:58;95001.75;;;21.58;76.36
79577;BME280;69045;48.136;11.386;2023-07-29T06:33:26;95007.47;;;21.51;76.41
79577;BME280;69045;48.136;11.386;2023-07-29T06:35:55;95003.03;;;21.60;76.36
79577;BME280;69045;48.136;11.386;2023-07-29T06:38:23;95020.03;;;21.64;75.61
79577;BME280;69045;48.136;11.386;2023-07-29T06:40:51;95045.06;;;21.68;75.39
79577;BME280;69045;48.136;11.386;2023-07-29T06:43:19;95056.41;;;21.74;75.25
79577;BME280;69045;48.136;11.386;2023-07-29T06:45:48;95045.72;;;21.74;75.19
79577;BME280;69045;48.136;11.386;2023-07-29T06:48:16;95050.56;;;21.72;75.01
79577;BME280;69045;48.136;11.386;2023-07-29T06:50:45;95065.72;;;21.76;75.23
79577;BME280;69045;48.136;11.386;2023-07-29T06:53:14;95066.50;;;21.77;74.84
79577;BME280;69045;48.136;11.386;2023-07-29T06:55:43;95058.28;;;21.73;74.72
79577;BME280;69045;48.136;11.386;2023-07-29T06:58:11;95042.38;;;21.68;74.97
79577;BME280;69045;48.136;11.386;2023-07-29T07:00:39;95054.63;;;21.69;75.31
79577;BME280;69045;48.136;11.386;2023-07-29T07:03:07;95050.88;;;21.70;74.65
79577;BME280;69045;48.136;11.386;2023-07-29T07:05:35;95048.41;;;21.74;74.81
79577;BME280;69045;48.136;11.386;2023-07-29T07:08:05;95044.38;;;21.76;74.89
79577;BME280;69045;48.136;11.386;2023-07-29T07:10:35;95042.19;;;21.78;74.52
79577;BME280;69045;48.136;11.386;2023-07-29T07:13:04;95041.63;;;21.82;74.93
79577;BME280;69045;48.136;11.386;2023-07-29T07:15:34;95044.44;;;21.71;74.50
79577;BME280;69045;48.136;11.386;2023-07-29T07:18:03;95041.13;;;21.47;76.43
79577;BME280;69045;48.136;11.386;2023-07-29T07:20:31;95042.34;;;21.55;76.33
79577;BME280;69045;48.136;11.386;2023-07-29T07:22:59;95024.59;;;21.64;76.04
79577;BME280;69045;48.136;11.386;2023-07-29T07:25:27;95016.16;;;21.24;76.58
79577;BME280;69045;48.136;11.386;2023-07-29T07:27:56;95009.38;;;20.37;80.73
79577;BME280;69045;48.136;11.386;2023-07-29T07:30:24;95012.50;;;20.44;81.51
79577;BME280;69045;48.136;11.386;2023-07-29T07:32:52;94995.91;;;20.05;82.98
79577;BME280;69045;48.136;11.386;2023-07-29T07:35:21;94984.81;;;20.22;83.44
79577;BME280;69045;48.136;11.386;2023-07-29T07:37:49;94981.91;;;20.42;81.66
79577;BME280;69045;48.136;11.386;2023-07-29T07:40:17;94987.41;;;20.51;81.97
79577;BME280;69045;48.136;11.386;2023-07-29T07:42:45;94978.63;;;20.07;84.10
79577;BME280;69045;48.136;11.386;2023-07-29T07:45:14;94977.03;;;20.49;84.43
79577;BME280;69045;48.136;11.386;2023-07-29T07:47:44;94975.31;;;20.58;82.60
79577;BME280;69045;48.136;11.386;2023-07-29T07:50:14;94985.09;;;20.82;81.99
79577;BME280;69045;48.136;11.386;2023-07-29T07:52:46;94992.50;;;20.85;81.27
79577;BME280;69045;48.136;11.386;2023-07-29T07:55:15;94989.94;;;21.12;81.82
79577;BME280;69045;48.136;11.386;2023-07-29T07:57:46;94992.84;;;21.35;80.22
79577;BME280;69045;48.136;11.386;2023-07-29T08:00:15;94985.00;;;21.06;81.33
79577;BME280;69045;48.136;11.386;2023-07-29T08:02:45;94987.94;;;21.23;80.74
79577;BME280;69045;48.136;11.386;2023-07-29T08:05:14;94991.47;;;21.51;79.86
79577;BME280;69045;48.136;11.386;2023-07-29T08:07:42;94985.25;;;21.42;79.39
79577;BME280;69045;48.136;11.386;2023-07-29T08:10:10;94980.66;;;21.61;79.26
79577;BME280;69045;48.136;11.386;2023-07-29T08:12:38;94981.84;;;21.83;78.50
79577;BME280;69045;48.136;11.386;2023-07-29T08:15:06;94987.66;;;21.06;80.96
79577;BME280;69045;48.136;11.386;2023-07-29T08:17:36;94988.41;;;21.44;80.65
79577;BME280;69045;48.136;11.386;2023-07-29T08:20:05;94980.56;;;21.80;81.14
79577;BME280;69045;48.136;11.386;2023-07-29T08:22:34;94978.00;;;21.75;79.67
79577;BME280;69045;48.136;11.386;2023-07-29T08:25:05;94978.78;;;22.03;78.12
79577;BME280;69045;48.136;11.386;2023-07-29T08:27:37;94977.09;;;21.79;80.19
79577;BME280;69045;48.136;11.386;2023-07-29T08:30:07;94981.66;;;22.20;78.94
79577;BME280;69045;48.136;11.386;2023-07-29T08:32:37;94972.25;;;22.50;78.11
79577;BME280;69045;48.136;11.386;2023-07-29T08:35:07;94980.34;;;22.59;75.93
79577;BME280;69045;48.136;11.386;2023-07-29T08:37:35;94984.22;;;22.75;73.29
79577;BME280;69045;48.136;11.386;2023-07-29T08:40:06;94982.91;;;23.00;74.96
79577;BME280;69045;48.136;11.386;2023-07-29T08:42:39;94970.88;;;23.11;74.12
79577;BME280;69045;48.136;11.386;2023-07-29T08:45:11;94984.84;;;23.31;74.10
79577;BME280;69045;48.136;11.386;2023-07-29T08:47:46;94980.50;;;23.43;73.12
79577;BME280;69045;48.136;11.386;2023-07-29T08:50:20;94991.16;;;23.57;71.68
79577;BME280;69045;48.136;11.386;2023-07-29T08:52:52;94983.34;;;23.69;70.97
79577;BME280;69045;48.136;11.386;2023-07-29T08:55:23;94988.13;;;23.81;70.34
79577;BME280;69045;48.136;11.386;2023-07-29T08:57:54;94982.53;;;23.91;68.35
79577;BME280;69045;48.136;11.386;2023-07-29T09:00:27;94992.50;;;24.08;67.72
79577;BME280;69045;48.136;11.386;2023-07-29T09:02:58;94993.47;;;24.21;67.02
79577;BME280;69045;48.136;11.386;2023-07-29T09:05:36;94996.41;;;24.50;65.76
79577;BME280;69045;48.136;11.386;2023-07-29T09:08:06;95003.88;;;24.80;65.08
79577;BME280;69045;48.136;11.386;2023-07-29T09:10:36;95005.97;;;25.09;64.58
79577;BME280;69045;48.136;11.386;2023-07-29T09:13:07;95002.31;;;25.30;63.64
79577;BME280;69045;48.136;11.386;2023-07-29T09:15:38;95004.50;;;25.54;63.87
79577;BME280;69045;48.136;11.386;2023-07-29T09:18:11;95000.66;;;25.64;63.69
79577;BME280;69045;48.136;11.386;2023-07-29T09:20:43;94997.66;;;25.83;64.53
79577;BME280;69045;48.136;11.386;2023-07-29T09:23:16;94991.81;;;26.19;63.34
79577;BME280;69045;48.136;11.386;2023-07-29T09:25:48;94983.81;;;26.70;61.87
79577;BME280;69045;48.136;11.386;2023-07-29T09:28:20;94990.09;;;27.15;60.48
79577;BME280;69045;48.136;11.386;2023-07-29T09:30:49;94990.13;;;27.48;57.92
79577;BME280;69045;48.136;11.386;2023-07-29T09:33:20;94982.28;;;27.56;55.69
79577;BME280;69045;48.136;11.386;2023-07-29T09:35:48;94978.47;;;27.90;55.58
79577;BME280;69045;48.136;11.386;2023-07-29T09:38:17;94978.13;;;27.79;55.75
79577;BME280;69045;48.136;11.386;2023-07-29T09:40:46;94975.78;;;28.14;54.64
79577;BME280;69045;48.136;11.386;2023-07-29T09:43:16;94982.53;;;28.45;54.03
79577;BME280;69045;48.136;11.386;2023-07-29T09:45:46;94971.72;;;28.69;52.30
79577;BME280;69045;48.136;11.386;2023-07-29T09:48:20;94977.19;;;28.97;51.58
79577;BME280;69045;48.136;11.386;2023-07-29T09:50:51;94978.38;;;29.12;52.13
79577;BME280;69045;48.136;11.386;2023-07-29T09:53:21;94976.13;;;29.14;50.01
79577;BME280;69045;48.136;11.386;2023-07-29T09:55:53;94973.44;;;29.14;49.73
79577;BME280;69045;48.136;11.386;2023-07-29T09:58:26;94967.56;;;29.12;49.62
79577;BME280;69045;48.136;11.386;2023-07-29T10:00:55;94973.31;;;29.10;50.12
79577;BME280;69045;48.136;11.386;2023-07-29T10:03:31;94966.84;;;29.27;49.62
79577;BME280;69045;48.136;11.386;2023-07-29T10:06:03;94966.94;;;29.31;48.65
79577;BME280;69045;48.136;11.386;2023-07-29T10:08:37;94966.47;;;29.41;48.44
79577;BME280;69045;48.136;11.386;2023-07-29T10:11:09;94966.78;;;29.40;48.53
79577;BME280;69045;48.136;11.386;2023-07-29T10:13:38;94964.84;;;29.52;48.60
79577;BME280;69045;48.136;11.386;2023-07-29T10:16:09;94965.72;;;29.56;48.09
79577;BME280;69045;48.136;11.386;2023-07-29T10:18:41;94961.75;;;29.82;48.15
79577;BME280;69045;48.136;11.386;2023-07-29T10:21:11;94966.25;;;29.94;47.53
79577;BME280;69045;48.136;11.386;2023-07-29T10:23:47;94956.81;;;30.15;47.06
79577;BME280;69045;48.136;11.386;2023-07-29T10:26:20;94956.69;;;30.28;46.22
79577;BME280;69045;48.136;11.386;2023-07-29T10:28:52;94939.78;;;30.31;44.89
79577;BME280;69045;48.136;11.386;2023-07-29T10:31:22;94946.06;;;30.19;45.95
79577;BME280;69045;48.136;11.386;2023-07-29T10:33:52;94942.84;;;30.13;46.15
79577;BME280;69045;48.136;11.386;2023-07-29T10:36:22;94940.91;;;30.14;45.31
79577;BME280;69045;48.136;11.386;2023-07-29T10:38:51;94942.94;;;30.17;45.85
79577;BME280;69045;48.136;11.386;2023-07-29T10:41:19;94940.19;;;30.33;45.88
79577;BME280;69045;48.136;11.386;2023-07-29T10:43:50;94928.56;;;30.48;45.64
79577;BME280;69045;48.136;11.386;2023-07-29T10:46:19;94932.69;;;30.77;45.52
79577;BME280;69045;48.136;11.386;2023-07-29T10:48:56;94934.56;;;30.92;44.91
79577;BME280;69045;48.136;11.386;2023-07-29T10:51:27;94941.75;;;30.85;45.21
79577;BME280;69045;48.136;11.386;2023-07-29T10:53:58;94946.69;;;30.12;45.67
79577;BME280;69045;48.136;11.386;2023-07-29T10:56:29;94942.31;;;29.92;45.50
79577;BME280;69045;48.136;11.386;2023-07-29T10:58:59;94936.66;;;29.81;45.44
79577;BME280;69045;48.136;11.386;2023-07-29T11:01:28;94951.81;;;29.70;45.79
79577;BME280;69045;48.136;11.386;2023-07-29T11:04:25;94960.34;;;29.44;46.46
79577;BME280;69045;48.136;11.386;2023-07-29T11:07:21;94981.66;;;29.05;47.13
79577;BME280;69045;48.136;11.386;2023-07-29T11:09:55;94978.06;;;29.14;45.68
79577;BME280;69045;48.136;11.386;2023-07-29T11:12:42;94980.34;;;28.87;45.28
79577;BME280;69045;48.136;11.386;2023-07-29T11:15:16;94973.34;;;28.34;45.85
79577;BME280;69045;48.136;11.386;2023-07-29T11:17:46;94965.00;;;28.14;45.83
79577;BME280;69045;48.136;11.386;2023-07-29T11:20:18;94976.69;;;27.94;46.34
79577;BME280;69045;48.136;11.386;2023-07-29T11:22:46;94972.97;;;27.53;47.09
79577;BME280;69045;48.136;11.386;2023-07-29T11:25:16;94959.97;;;27.55;47.32
79577;BME280;69045;48.136;11.386;2023-07-29T11:27:45;94961.41;;;27.86;46.79
79577;BME280;69045;48.136;11.386;2023-07-29T11:30:15;94956.81;;;28.23;45.91
79577;BME280;69045;48.136;11.386;2023-07-29T11:32:46;94956.25;;;28.29;45.65
79577;BME280;69045;48.136;11.386;2023-07-29T11:35:17;94953.69;;;28.45;45.44
79577;BME280;69045;48.136;11.386;2023-07-29T11:37:48;94944.91;;;28.61;45.10
79577;BME280;69045;48.136;11.386;2023-07-29T11:40:18;94939.34;;;28.81;44.70
79577;BME280;69045;48.136;11.386;2023-07-29T11:42:48;94944.22;;;29.04;44.33
79577;BME280;69045;48.136;11.386;2023-07-29T11:45:18;94937.97;;;29.28;44.03
79577;BME280;69045;48.136;11.386;2023-07-29T11:47:46;94944.75;;;29.37;43.91
79577;BME280;69045;48.136;11.386;2023-07-29T11:50:16;94945.41;;;29.47;43.31
79577;BME280;69045;48.136;11.386;2023-07-29T11:52:45;94944.19;;;29.60;43.94
79577;BME280;69045;48.136;11.386;2023-07-29T11:55:15;94924.09;;;29.89;44.03
79577;BME280;69045;48.136;11.386;2023-07-29T11:57:51;94917.47;;;29.71;43.03
79577;BME280;69045;48.136;11.386;2023-07-29T12:00:20;94924.09;;;29.57;43.10
79577;BME280;69045;48.136;11.386;2023-07-29T12:02:50;94927.41;;;29.82;42.76
79577;BME280;69045;48.136;11.386;2023-07-29T12:05:22;94931.16;;;29.78;43.54
79577;BME280;69045;48.136;11.386;2023-07-29T12:07:52;94919.56;;;29.93;43.15
79577;BME280;69045;48.136;11.386;2023-07-29T12:10:21;94913.03;;;30.10;42.86
79577;BME280;69045;48.136;11.386;2023-07-29T12:12:50;94915.59;;;30.38;42.50
79577;BME280;69045;48.136;11.386;2023-07-29T12:15:23;94904.78;;;30.38;43.31
79577;BME280;69045;48.136;11.386;2023-07-29T12:17:56;94900.69;;;30.44;41.93
79577;BME280;69045;48.136;11.386;2023-07-29T12:20:29;94893.50;;;30.52;41.89
79577;BME280;69045;48.136;11.386;2023-07-29T12:22:59;94897.41;;;30.70;42.56
79577;BME280;69045;48.136;11.386;2023-07-29T12:25:30;94900.53;;;30.91;42.86
79577;BME280;69045;48.136;11.386;2023-07-29T12:28:02;94894.00;;;31.15;41.95
79577;BME280;69045;48.136;11.386;2023-07-29T12:30:30;94882.72;;;31.10;41.23
79577;BME280;69045;48.136;11.386;2023-07-29T12:32:59;94870.19;;;30.82;41.61
79577;BME280;69045;48.136;11.386;2023-07-29T12:35:35;94867.66;;;30.54;42.78
79577;BME280;69045;48.136;11.386;2023-07-29T12:38:04;94895.31;;;30.28;43.44
79577;BME280;69045;48.136;11.386;2023-07-29T12:40:32;94926.53;;;29.78;44.87
79577;BME280;69045;48.136;11.386;2023-07-29T12:43:00;94931.38;;;29.41;46.45
79577;BME280;69045;48.136;11.386;2023-07-29T12:45:35;94914.13;;;28.90;47.95
79577;BME280;69045;48.136;11.386;2023-07-29T12:48:06;94909.44;;;28.87;48.22
79577;BME280;69045;48.136;11.386;2023-07-29T12:50:36;94924.78;;;28.58;48.76
79577;BME280;69045;48.136;11.386;2023-07-29T12:53:04;94919.75;;;28.44;50.16
79577;BME280;69045;48.136;11.386;2023-07-29T12:55:33;94936.72;;;28.20;50.47
79577;BME280;69045;48.136;11.386;2023-07-29T12:58:01;94945.94;;;28.07;51.01
79577;BME280;69045;48.136;11.386;2023-07-29T13:00:29;94961.75;;;27.84;51.69
79577;BME280;69045;48.136;11.386;2023-07-29T13:02:57;94981.97;;;27.57;53.30